DLH6EJ EKBI-EDDF
Flight info
| Callsign | DLH6EJ |
|---|---|
| Flight time | N/A |
| Altitude | 35000 |
| Route | ALS M852 EKERN DCT RIMET/N0431F310 T157 KOKEB/N0381F230 T157 KERAX KERAX5D |
| Aircraft | A321/M-SDE2E3FGIJ1LORWXYZ/HB1 |
Departure
| Time | 2026-04-27 09:43 |
|---|---|
| Airport | Billund Airport (EKBI) |
Arrival
| Time | N/A |
|---|---|
| Airport | Frankfurt Main Airport (EDDF) |
| Time | Latitude | Longitude | Altitude | Speed | Heading |
|---|---|---|---|---|---|
| 2026-04-27 09:27 | 55.74521 | 9.14614 | 226 ft | 0 kts | 358° |
| 2026-04-27 09:34 | 55.74518 | 9.14614 | 226 ft | 3 kts | 357° |
| 2026-04-27 09:34 | 55.74491 | 9.14619 | 227 ft | 4 kts | 348° |
| 2026-04-27 09:34 | 55.74466 | 9.14634 | 229 ft | 4 kts | 327° |
| 2026-04-27 09:34 | 55.74450 | 9.14664 | 229 ft | 4 kts | 275° |
| 2026-04-27 09:35 | 55.74449 | 9.14673 | 228 ft | 0 kts | 266° |
| 2026-04-27 09:37 | 55.74448 | 9.14646 | 229 ft | 4 kts | 266° |
| 2026-04-27 09:37 | 55.74446 | 9.14568 | 227 ft | 9 kts | 266° |
| 2026-04-27 09:38 | 55.74407 | 9.14474 | 225 ft | 12 kts | 197° |
| 2026-04-27 09:38 | 55.74311 | 9.14475 | 225 ft | 16 kts | 177° |
| 2026-04-27 09:38 | 55.74210 | 9.14484 | 225 ft | 6 kts | 177° |
| 2026-04-27 09:38 | 55.74182 | 9.14528 | 225 ft | 5 kts | 78° |
| 2026-04-27 09:39 | 55.74187 | 9.14616 | 226 ft | 10 kts | 89° |
| 2026-04-27 09:39 | 55.74191 | 9.14785 | 227 ft | 17 kts | 86° |
| 2026-04-27 09:39 | 55.74198 | 9.15034 | 229 ft | 23 kts | 88° |
| 2026-04-27 09:39 | 55.74208 | 9.15348 | 231 ft | 27 kts | 86° |
| 2026-04-27 09:40 | 55.74219 | 9.15686 | 233 ft | 28 kts | 86° |
| 2026-04-27 09:40 | 55.74230 | 9.16035 | 235 ft | 29 kts | 87° |
| 2026-04-27 09:40 | 55.74240 | 9.16380 | 238 ft | 27 kts | 86° |
| 2026-04-27 09:40 | 55.74250 | 9.16714 | 240 ft | 27 kts | 87° |
| 2026-04-27 09:41 | 55.74261 | 9.17052 | 242 ft | 24 kts | 86° |
| 2026-04-27 09:41 | 55.74270 | 9.17340 | 244 ft | 24 kts | 87° |
| 2026-04-27 09:41 | 55.74280 | 9.17637 | 246 ft | 24 kts | 86° |
| 2026-04-27 09:41 | 55.74289 | 9.17943 | 248 ft | 25 kts | 88° |
| 2026-04-27 09:42 | 55.74195 | 9.18151 | 249 ft | 23 kts | 171° |
| 2026-04-27 09:42 | 55.74127 | 9.18046 | 248 ft | 2 kts | 265° |
| 2026-04-27 09:42 | 55.74125 | 9.17998 | 247 ft | 12 kts | 265° |
| 2026-04-27 09:42 | 55.74107 | 9.17369 | 243 ft | 89 kts | 268° |
| 2026-04-27 09:43 | 55.74060 | 9.15875 | 232 ft | 152 kts | 267° |
| 2026-04-27 09:43 | 55.74000 | 9.13782 | 547 ft | 175 kts | 268° |
| 2026-04-27 09:43 | 55.74078 | 9.11604 | 1259 ft | 182 kts | 294° |
| 2026-04-27 09:43 | 55.74767 | 9.09703 | 1860 ft | 189 kts | 308° |
| 2026-04-27 09:44 | 55.75628 | 9.07778 | 2160 ft | 210 kts | 310° |
| 2026-04-27 09:44 | 55.76610 | 9.05660 | 2391 ft | 234 kts | 310° |
| 2026-04-27 09:44 | 55.77676 | 9.03363 | 2862 ft | 251 kts | 310° |
| 2026-04-27 09:44 | 55.78786 | 9.00922 | 3614 ft | 256 kts | 308° |
| 2026-04-27 09:45 | 55.79522 | 8.98049 | 4342 ft | 262 kts | 277° |
| 2026-04-27 09:45 | 55.79203 | 8.94874 | 5107 ft | 268 kts | 242° |
| 2026-04-27 09:45 | 55.78408 | 8.93136 | 5608 ft | 272 kts | 219° |